Time;durP1;ratioP1;P1;durP2;ratioP2;P2;SDS_P1;SDS_P2;PMS_P1;PMS_P2;Temp;Humidity;BMP_temperature;BMP_pressure;BME280_temperature;BME280_humidity;BME280_pressure;Samples;Min_cycle;Max_cycle;Signal;HPM_P1;HPM_P2
2023/04/01 00:00:58;;;;;;;;;;;;;;;11.86;95.36;98819.66;5052201;28;19953;-59
2023/04/01 00:03:25;;;;;;;;;;;;;;;11.89;94.64;98817.66;5051364;28;19923;-58
2023/04/01 00:05:50;;;;;;;;;;;;;;;11.65;95.01;98780.88;5065731;28;20529;-59
2023/04/01 00:08:15;;;;;;;;;;;;;;;11.87;94.76;98813.38;5067842;28;19934;-58
2023/04/01 00:10:41;;;;;;;;;;;;;;;11.93;94.73;98820.16;5071419;28;19957;-58
2023/04/01 00:13:06;;;;;;;;;;;;;;;11.93;95.33;98818.34;5071316;28;19970;-58
2023/04/01 00:15:32;;;;;;;;;;;;;;;11.95;94.89;98824.44;5053684;28;19957;-58
2023/04/01 00:17:57;;;;;;;;;;;;;;;11.96;94.50;98823.50;5050821;28;19935;-58
2023/04/01 00:20:22;;;;;;;;;;;;;;;11.93;93.96;98815.69;5051960;28;19947;-59
2023/04/01 00:22:48;;;;;;;;;;;;;;;11.90;94.32;98819.38;5068751;28;19939;-58
2023/04/01 00:25:15;;;;;;;;;;;;;;;12.00;94.11;98822.38;5069895;28;19958;-59
2023/04/01 00:27:41;;;;;;;;;;;;;;;11.92;93.54;98819.31;5062301;28;19934;-59
2023/04/01 00:30:07;;;;;;;;;;;;;;;11.93;94.26;98808.56;5071027;28;19928;-59
2023/04/01 00:32:32;;;;;;;;;;;;;;;11.97;93.68;98806.56;5070956;28;19929;-58
2023/04/01 00:35:00;;;;;;;;;;;;;;;11.95;93.00;98808.47;5066064;28;20443;-58
2023/04/01 00:37:26;;;;;;;;;;;;;;;11.96;93.10;98814.66;5069669;28;19964;-58
2023/04/01 00:39:52;;;;;;;;;;;;;;;12.00;92.56;98826.84;5069693;28;19938;-59
2023/04/01 00:42:17;;;;;;;;;;;;;;;12.06;92.73;98819.34;5069575;28;19923;-59
2023/04/01 00:44:45;;;;;;;;;;;;;;;12.12;92.38;98821.69;5053280;28;19936;-58
2023/04/01 00:47:10;;;;;;;;;;;;;;;12.05;91.85;98816.78;5065345;28;19941;-59
2023/04/01 00:49:40;;;;;;;;;;;;;;;12.03;92.06;98826.66;5070704;28;19930;-58
2023/04/01 00:52:07;;;;;;;;;;;;;;;11.98;91.71;98826.94;5068232;28;20480;-59
2023/04/01 00:54:33;;;;;;;;;;;;;;;12.01;91.82;98812.59;5069846;28;20057;-59
2023/04/01 00:57:11;;;;;;;;;;;;;;;11.99;92.45;98826.00;5069802;28;20316;-58
2023/04/01 00:59:41;;;;;;;;;;;;;;;11.93;91.54;98814.84;5070243;28;20389;-59
2023/04/01 01:02:08;;;;;;;;;;;;;;;11.92;91.36;98813.97;5065897;28;19944;-58
2023/04/01 01:04:34;;;;;;;;;;;;;;;11.98;91.18;98816.28;5070212;28;19949;-59
2023/04/01 01:07:12;;;;;;;;;;;;;;;11.99;91.04;98819.81;5070873;28;20464;-59
2023/04/01 01:09:37;;;;;;;;;;;;;;;11.97;90.66;98817.22;5070834;28;20030;-58
2023/04/01 01:12:29;;;;;;;;;;;;;;;11.93;90.51;98812.19;5057592;28;20034;-59
2023/04/01 01:15:11;;;;;;;;;;;;;;;11.94;90.48;98817.41;5061037;28;19941;-59
2023/04/01 01:17:44;;;;;;;;;;;;;;;11.86;89.32;98817.00;5065786;28;19942;-59
2023/04/01 01:20:28;;;;;;;;;;;;;;;11.87;89.05;98805.38;5077067;28;19955;-58
2023/04/01 01:22:57;;;;;;;;;;;;;;;11.80;88.13;98798.66;5073382;28;20765;-59
2023/04/01 01:25:31;;;;;;;;;;;;;;;11.76;87.46;98797.16;5076702;28;19927;-58
2023/04/01 01:28:26;;;;;;;;;;;;;;;11.76;87.25;98797.97;5077214;28;20766;-59
2023/04/01 01:31:03;;;;;;;;;;;;;;;11.76;86.37;98797.16;5058772;28;19934;-59
2023/04/01 01:33:47;;;;;;;;;;;;;;;11.75;86.66;98803.41;5057025;28;19944;-59
2023/04/01 01:36:13;;;;;;;;;;;;;;;11.75;86.65;98793.63;5074985;28;19950;-59
2023/04/01 01:38:39;;;;;;;;;;;;;;;11.73;85.67;98784.84;5069042;28;19994;-58
2023/04/01 01:41:06;;;;;;;;;;;;;;;11.69;86.50;98795.75;5057063;28;19956;-58
2023/04/01 01:43:35;;;;;;;;;;;;;;;11.70;86.90;98787.69;5059613;28;20049;-58
2023/04/01 01:46:02;;;;;;;;;;;;;;;11.60;86.91;98797.09;5067135;28;19937;-58
2023/04/01 01:48:29;;;;;;;;;;;;;;;11.56;86.69;98786.72;5074950;28;19937;-58
2023/04/01 01:50:55;;;;;;;;;;;;;;;11.56;87.18;98790.25;5059302;28;19985;-59
2023/04/01 01:53:20;;;;;;;;;;;;;;;11.56;86.77;98794.69;5076727;28;19932;-59
2023/04/01 01:55:47;;;;;;;;;;;;;;;11.46;87.18;98799.69;5065899;28;20417;-58
2023/04/01 01:58:35;;;;;;;;;;;;;;;11.57;86.89;98796.41;5058007;28;20300;-58
2023/04/01 02:01:02;;;;;;;;;;;;;;;11.56;87.09;98800.03;5059972;28;20043;-58
2023/04/01 02:03:30;;;;;;;;;;;;;;;11.43;87.24;98789.19;5057212;28;20409;-59
2023/04/01 02:05:57;;;;;;;;;;;;;;;11.43;87.53;98788.34;5072775;28;19947;-59
2023/04/01 02:08:27;;;;;;;;;;;;;;;11.32;87.27;98804.03;5060969;28;20034;-58
2023/04/01 02:10:59;;;;;;;;;;;;;;;11.31;88.34;98783.69;5057289;28;19974;-58
2023/04/01 02:13:29;;;;;;;;;;;;;;;11.29;88.33;98796.22;5059884;28;19995;-59
2023/04/01 02:15:56;;;;;;;;;;;;;;;11.32;88.90;98801.38;5057389;28;19939;-58
2023/04/01 02:18:22;;;;;;;;;;;;;;;11.35;89.99;98795.91;5059652;28;20384;-58
2023/04/01 02:20:49;;;;;;;;;;;;;;;11.33;89.97;98806.63;5077217;28;19931;-58
2023/04/01 02:23:14;;;;;;;;;;;;;;;11.28;89.80;98794.50;5077166;28;19966;-58
2023/04/01 02:25:41;;;;;;;;;;;;;;;11.20;90.10;98783.44;5066561;28;20333;-58
2023/04/01 02:28:07;;;;;;;;;;;;;;;11.21;91.19;98788.66;5053886;28;20414;-59
2023/04/01 02:30:34;;;;;;;;;;;;;;;11.17;91.59;98788.94;5053651;28;19927;-59
2023/04/01 02:33:00;;;;;;;;;;;;;;;11.19;91.61;98795.00;5054165;28;19923;-58
2023/04/01 02:35:25;;;;;;;;;;;;;;;11.26;91.79;98793.72;5056861;28;20392;-58
2023/04/01 02:37:51;;;;;;;;;;;;;;;11.23;90.79;98791.25;5053793;28;19937;-59
2023/04/01 02:40:17;;;;;;;;;;;;;;;11.29;91.22;98790.91;5056128;28;19954;-59
2023/04/01 02:42:43;;;;;;;;;;;;;;;11.21;91.21;98782.47;5053796;28;19931;-58
2023/04/01 02:45:08;;;;;;;;;;;;;;;11.24;90.84;98787.63;5053811;28;19933;-58
2023/04/01 02:47:34;;;;;;;;;;;;;;;11.24;91.21;98779.63;5055929;28;19942;-59
2023/04/01 02:50:27;;;;;;;;;;;;;;;11.25;90.58;98789.38;5053036;28;20798;-59
2023/04/01 02:52:52;;;;;;;;;;;;;;;11.28;89.93;98778.53;5059843;28;19924;-58
2023/04/01 02:55:17;;;;;;;;;;;;;;;11.24;90.45;98772.53;5052910;28;19927;-58
2023/04/01 02:57:43;;;;;;;;;;;;;;;11.28;90.35;98774.09;5055781;28;19982;-59
2023/04/01 03:00:11;;;;;;;;;;;;;;;11.29;89.24;98781.13;5052542;28;19948;-58
2023/04/01 03:02:36;;;;;;;;;;;;;;;11.22;89.18;98763.75;5062369;28;19930;-59
2023/04/01 03:05:02;;;;;;;;;;;;;;;11.26;89.28;98767.13;5066972;28;20433;-59
2023/04/01 03:07:27;;;;;;;;;;;;;;;11.32;89.21;98770.28;5072160;28;19929;-59
2023/04/01 03:09:52;;;;;;;;;;;;;;;11.33;88.59;98776.47;5068156;28;20119;-58
2023/04/01 03:12:18;;;;;;;;;;;;;;;11.35;88.24;98767.44;5061823;28;19936;-58
2023/04/01 03:14:43;;;;;;;;;;;;;;;11.36;88.13;98771.84;5071842;28;20398;-58
2023/04/01 03:17:08;;;;;;;;;;;;;;;11.39;87.83;98770.81;5058100;28;19920;-58
2023/04/01 03:19:33;;;;;;;;;;;;;;;11.47;87.86;98773.91;5052690;28;19960;-59
2023/04/01 03:21:59;;;;;;;;;;;;;;;11.50;87.36;98774.59;5064640;28;20117;-58
2023/04/01 03:24:24;;;;;;;;;;;;;;;11.49;87.51;98778.22;5052597;28;19935;-58
2023/04/01 03:26:50;;;;;;;;;;;;;;;11.50;87.31;98773.72;5052274;28;19927;-58
2023/04/01 03:29:15;;;;;;;;;;;;;;;11.55;87.25;98771.66;5064827;28;19934;-59
2023/04/01 03:31:40;;;;;;;;;;;;;;;11.55;86.99;98766.34;5071929;28;19937;-58
2023/04/01 03:34:06;;;;;;;;;;;;;;;11.66;86.61;98769.31;5066133;28;19994;-58
2023/04/01 03:36:31;;;;;;;;;;;;;;;11.66;87.10;98766.66;5051884;28;19923;-58
2023/04/01 03:38:56;;;;;;;;;;;;;;;11.72;86.54;98755.63;5052005;28;20383;-58
2023/04/01 03:41:21;;;;;;;;;;;;;;;11.73;86.58;98765.31;5056194;28;19993;-58
2023/04/01 03:43:47;;;;;;;;;;;;;;;11.73;86.34;98755.53;5070792;28;19986;-59
2023/04/01 03:46:16;;;;;;;;;;;;;;;11.75;86.77;98752.78;5072337;28;19938;-58
2023/04/01 03:48:42;;;;;;;;;;;;;;;11.78;86.14;98745.47;5068740;28;19940;-59
2023/04/01 03:51:07;;;;;;;;;;;;;;;11.78;85.71;98757.94;5072085;28;20011;-58
2023/04/01 03:53:32;;;;;;;;;;;;;;;11.78;85.74;98752.59;5071757;28;20013;-58
2023/04/01 03:55:58;;;;;;;;;;;;;;;11.82;85.36;98759.50;5071825;28;19923;-59
2023/04/01 03:58:23;;;;;;;;;;;;;;;11.79;85.31;98755.19;5057049;28;20292;-58
2023/04/01 04:00:48;;;;;;;;;;;;;;;11.84;85.91;98768.25;5051827;28;19983;-58
2023/04/01 04:03:13;;;;;;;;;;;;;;;11.85;85.58;98761.97;5054278;28;20337;-58
2023/04/01 04:05:45;;;;;;;;;;;;;;;11.86;85.50;98769.03;5064848;28;19946;-58
2023/04/01 04:08:11;;;;;;;;;;;;;;;11.80;86.62;98762.25;5070934;28;20019;-58
2023/04/01 04:10:36;;;;;;;;;;;;;;;11.83;86.41;98766.53;5070381;28;20037;-58
2023/04/01 04:13:01;;;;;;;;;;;;;;;11.85;86.54;98756.63;5071309;28;20663;-58
2023/04/01 04:15:26;;;;;;;;;;;;;;;11.82;85.81;98765.69;5071164;28;19931;-58
2023/04/01 04:17:52;;;;;;;;;;;;;;;11.79;86.46;98765.00;5067960;28;19932;-58
2023/04/01 04:20:17;;;;;;;;;;;;;;;11.82;86.69;98764.81;5070714;28;20184;-58
2023/04/01 04:22:42;;;;;;;;;;;;;;;11.83;86.59;98766.53;5071230;28;20299;-58
2023/04/01 04:25:08;;;;;;;;;;;;;;;11.80;87.61;98764.91;5056681;28;19942;-58
2023/04/01 04:27:33;;;;;;;;;;;;;;;11.78;87.05;98757.94;5051004;28;19927;-58
2023/04/01 04:29:59;;;;;;;;;;;;;;;11.73;87.77;98754.66;5056586;28;20083;-58
2023/04/01 04:32:24;;;;;;;;;;;;;;;11.72;87.53;98771.63;5051343;28;19928;-59
2023/04/01 04:34:49;;;;;;;;;;;;;;;11.70;88.01;98769.03;5050761;28;19912;-58
2023/04/01 04:37:15;;;;;;;;;;;;;;;11.73;87.71;98760.88;5053636;28;19935;-58
2023/04/01 04:39:40;;;;;;;;;;;;;;;11.72;87.72;98752.97;5050352;28;19934;-58
2023/04/01 04:42:05;;;;;;;;;;;;;;;11.73;86.85;98762.66;5052800;28;19962;-58
2023/04/01 04:44:30;;;;;;;;;;;;;;;11.72;86.51;98756.50;5050871;28;20051;-59
2023/04/01 04:46:56;;;;;;;;;;;;;;;11.68;86.50;98751.41;5035114;28;20375;-58
2023/04/01 04:49:21;;;;;;;;;;;;;;;11.61;85.60;98740.22;5050958;28;19933;-59
2023/04/01 04:51:46;;;;;;;;;;;;;;;11.62;85.25;98747.28;5058695;28;19960;-59
2023/04/01 04:54:12;;;;;;;;;;;;;;;11.59;84.46;98747.47;5056509;28;20394;-58
2023/04/01 04:56:37;;;;;;;;;;;;;;;11.63;83.87;98748.16;5062875;28;19927;-59
2023/04/01 04:59:02;;;;;;;;;;;;;;;11.65;84.06;98747.13;5065175;28;20022;-58
2023/04/01 05:01:28;;;;;;;;;;;;;;;11.58;84.01;98744.88;5052888;28;20326;-58
2023/04/01 05:03:53;;;;;;;;;;;;;;;11.51;83.45;98748.84;5050559;28;19917;-58
2023/04/01 05:06:19;;;;;;;;;;;;;;;11.45;83.51;98749.19;5069759;28;20371;-58
2023/04/01 05:08:45;;;;;;;;;;;;;;;11.47;84.94;98741.94;5067451;28;19936;-58
2023/04/01 05:11:14;;;;;;;;;;;;;;;11.43;85.58;98735.94;5070705;28;19962;-58
2023/04/01 05:13:40;;;;;;;;;;;;;;;11.38;87.25;98731.84;5069794;28;19936;-59
2023/04/01 05:16:10;;;;;;;;;;;;;;;11.40;87.89;98730.78;5067503;28;19985;-58
2023/04/01 05:18:35;;;;;;;;;;;;;;;11.37;88.54;98732.75;5069463;28;19979;-58
2023/04/01 05:21:00;;;;;;;;;;;;;;;11.37;88.60;98735.41;5070052;28;19960;-58
2023/04/01 05:23:25;;;;;;;;;;;;;;;11.43;88.63;98735.94;5068961;28;19927;-58
2023/04/01 05:25:52;;;;;;;;;;;;;;;11.39;89.49;98733.53;5052475;28;20520;-58
2023/04/01 05:28:18;;;;;;;;;;;;;;;11.37;91.27;98740.75;5049658;28;20396;-58
2023/04/01 05:30:44;;;;;;;;;;;;;;;11.29;92.32;98737.66;5061530;28;20015;-58
2023/04/01 05:33:09;;;;;;;;;;;;;;;11.28;93.55;98733.28;5064231;28;19938;-59
2023/04/01 05:35:35;;;;;;;;;;;;;;;11.26;93.72;98733.38;5049706;28;19973;-59
2023/04/01 05:38:01;;;;;;;;;;;;;;;11.18;95.33;98732.94;5054926;28;19981;-59
2023/04/01 05:40:27;;;;;;;;;;;;;;;11.19;96.16;98731.13;5069291;28;20464;-59
2023/04/01 05:42:52;;;;;;;;;;;;;;;10.97;96.17;98726.13;5061481;28;20658;-58
2023/04/01 05:45:17;;;;;;;;;;;;;;;10.97;96.91;98733.25;5047891;28;19939;-59
2023/04/01 05:47:43;;;;;;;;;;;;;;;10.99;97.07;98726.91;5051839;28;19932;-59
2023/04/01 05:50:09;;;;;;;;;;;;;;;10.95;96.62;98732.47;5049617;28;19927;-59
2023/04/01 05:52:34;;;;;;;;;;;;;;;10.91;95.52;98725.59;5064709;28;19956;-59
2023/04/01 05:55:00;;;;;;;;;;;;;;;10.99;95.38;98723.41;5066202;28;20316;-58
2023/04/01 05:57:25;;;;;;;;;;;;;;;10.93;95.48;98718.41;5069882;28;19955;-59
2023/04/01 05:59:50;;;;;;;;;;;;;;;10.90;95.98;98734.53;5066494;28;20007;-58
2023/04/01 06:02:17;;;;;;;;;;;;;;;11.04;95.85;98735.50;5066402;28;19923;-59
2023/04/01 06:04:42;;;;;;;;;;;;;;;10.99;97.12;98731.38;5072599;28;20458;-58
2023/04/01 06:07:14;;;;;;;;;;;;;;;11.02;95.95;98733.88;5072899;28;20023;-58
2023/04/01 06:09:40;;;;;;;;;;;;;;;10.98;96.35;98733.19;5064325;28;19937;-58
2023/04/01 06:12:08;;;;;;;;;;;;;;;11.02;97.17;98724.06;5052576;28;19935;-59
2023/04/01 06:14:47;;;;;;;;;;;;;;;11.02;96.41;98734.72;5060112;28;20009;-59
2023/04/01 06:17:23;;;;;;;;;;;;;;;11.04;97.96;98730.16;5073590;28;19932;-59
2023/04/01 06:19:51;;;;;;;;;;;;;;;11.07;97.76;98739.81;5070661;28;19991;-59
2023/04/01 06:22:35;;;;;;;;;;;;;;;11.12;98.27;98740.41;5069271;28;19954;-59
2023/04/01 06:25:03;;;;;;;;;;;;;;;11.10;98.10;98731.66;5074197;28;20025;-59
2023/04/01 06:27:47;;;;;;;;;;;;;;;11.12;98.91;98740.41;5057423;28;19933;-59
2023/04/01 06:30:31;;;;;;;;;;;;;;;11.12;98.06;98748.41;5054847;28;19973;-59
2023/04/01 06:33:14;;;;;;;;;;;;;;;11.13;98.73;98748.31;5065731;28;20377;-59
2023/04/01 06:35:42;;;;;;;;;;;;;;;11.22;99.31;98742.47;5074480;28;20256;-59
2023/04/01 06:38:14;;;;;;;;;;;;;;;11.14;100.00;98736.72;5069459;28;20350;-59
2023/04/01 06:40:42;;;;;;;;;;;;;;;11.13;100.00;98732.34;5074052;28;20000;-59
2023/04/01 06:43:13;;;;;;;;;;;;;;;11.12;100.00;98741.25;5074724;28;19928;-59
2023/04/01 06:45:46;;;;;;;;;;;;;;;11.12;100.00;98745.75;5072992;28;20008;-59
2023/04/01 06:48:17;;;;;;;;;;;;;;;11.16;100.00;98747.25;5074528;28;19928;-59
2023/04/01 06:51:05;;;;;;;;;;;;;;;11.23;100.00;98751.31;5073728;28;19939;-59
2023/04/01 06:53:37;;;;;;;;;;;;;;;11.12;100.00;98751.06;5057362;28;19942;-59
2023/04/01 06:56:07;;;;;;;;;;;;;;;11.12;100.00;98741.25;5073926;28;19936;-59
2023/04/01 06:58:42;;;;;;;;;;;;;;;11.21;100.00;98755.84;5073356;28;19929;-59
2023/04/01 07:01:10;;;;;;;;;;;;;;;11.22;100.00;98752.28;5071634;28;19920;-59
2023/04/01 07:03:45;;;;;;;;;;;;;;;11.21;100.00;98751.41;5059825;28;20463;-59
2023/04/01 07:06:24;;;;;;;;;;;;;;;11.25;100.00;98746.78;5071150;28;19979;-58
2023/04/01 07:08:50;;;;;;;;;;;;;;;11.30;100.00;98755.38;5071451;28;19926;-59
2023/04/01 07:11:26;;;;;;;;;;;;;;;11.33;100.00;98755.19;5073240;28;19929;-59
2023/04/01 07:13:54;;;;;;;;;;;;;;;11.10;100.00;98748.47;5069214;28;20294;-59
2023/04/01 07:16:40;;;;;;;;;;;;;;;11.15;100.00;98762.38;5062954;28;19965;-59
2023/04/01 07:19:17;;;;;;;;;;;;;;;11.18;100.00;98758.69;5053316;28;19927;-58
2023/04/01 07:21:48;;;;;;;;;;;;;;;11.20;100.00;98748.81;5062100;28;19961;-59
2023/04/01 07:24:20;;;;;;;;;;;;;;;11.22;100.00;98757.59;5069501;28;19954;-58
2023/04/01 07:26:46;;;;;;;;;;;;;;;11.28;100.00;98762.56;5072274;28;19917;-59
2023/04/01 07:29:13;;;;;;;;;;;;;;;11.32;100.00;98770.28;5069384;28;19940;-59
2023/04/01 07:31:57;;;;;;;;;;;;;;;11.30;100.00;98774.00;5059293;28;19986;-59
2023/04/01 07:34:25;;;;;;;;;;;;;;;11.29;100.00;98775.78;5070710;28;19923;-59
2023/04/01 07:36:53;;;;;;;;;;;;;;;11.36;100.00;98784.31;5069835;28;19932;-59
2023/04/01 07:39:33;;;;;;;;;;;;;;;11.32;100.00;98777.41;5073026;28;19939;-59
2023/04/01 07:42:01;;;;;;;;;;;;;;;11.30;100.00;98781.97;5073219;28;19973;-59
2023/04/01 07:44:38;;;;;;;;;;;;;;;11.25;100.00;98778.72;5059691;28;20048;-58
2023/04/01 07:47:15;;;;;;;;;;;;;;;11.26;100.00;98785.75;5058653;28;19943;-59
2023/04/01 07:49:46;;;;;;;;;;;;;;;11.37;100.00;98788.66;5067167;28;19934;-59
2023/04/01 07:52:29;;;;;;;;;;;;;;;11.38;100.00;98787.75;5077854;28;19959;-59
2023/04/01 07:55:00;;;;;;;;;;;;;;;11.29;100.00;98780.25;5073896;28;20421;-59
2023/04/01 07:57:34;;;;;;;;;;;;;;;11.24;100.00;98792.94;5057468;28;19925;-59
2023/04/01 08:00:18;;;;;;;;;;;;;;;11.32;100.00;98788.94;5058047;28;19962;-59
2023/04/01 08:03:02;;;;;;;;;;;;;;;11.46;100.00;98788.16;5059643;28;19942;-59
2023/04/01 08:05:29;;;;;;;;;;;;;;;11.52;100.00;98795.81;5070399;28;19995;-58
2023/04/01 08:08:15;;;;;;;;;;;;;;;11.56;100.00;98798.25;5070806;28;19955;-58
2023/04/01 08:10:52;;;;;;;;;;;;;;;11.69;100.00;98803.75;5063232;28;19936;-59
2023/04/01 08:13:42;;;;;;;;;;;;;;;11.58;100.00;98804.31;5062403;28;19914;-58
2023/04/01 08:16:25;;;;;;;;;;;;;;;11.42;100.00;98810.56;5064935;28;19985;-59
2023/04/01 08:19:00;;;;;;;;;;;;;;;11.42;100.00;98822.09;5080790;28;19969;-59
2023/04/01 08:21:28;;;;;;;;;;;;;;;11.42;100.00;98816.75;5079821;28;19956;-59
2023/04/01 08:23:56;;;;;;;;;;;;;;;11.48;100.00;98812.91;5079133;28;19934;-59
2023/04/01 08:26:42;;;;;;;;;;;;;;;11.49;100.00;98814.63;5067224;28;19937;-59
2023/04/01 08:29:17;;;;;;;;;;;;;;;11.48;100.00;98807.59;5062591;28;20004;-59
2023/04/01 08:31:48;;;;;;;;;;;;;;;11.50;100.00;98803.88;5065969;28;19921;-59
2023/04/01 08:34:34;;;;;;;;;;;;;;;11.40;100.00;98815.16;5062778;28;19952;-59
2023/04/01 08:37:05;;;;;;;;;;;;;;;11.39;100.00;98816.06;5058988;28;19959;-59
2023/04/01 08:39:38;;;;;;;;;;;;;;;11.41;100.00;98819.50;5059141;28;20443;-59
2023/04/01 08:42:15;;;;;;;;;;;;;;;11.56;100.00;98816.00;5077914;28;19948;-59
2023/04/01 08:44:53;;;;;;;;;;;;;;;11.49;100.00;98815.50;5080288;28;19976;-59
2023/04/01 08:47:30;;;;;;;;;;;;;;;11.48;100.00;98807.59;5064458;28;20030;-60
2023/04/01 08:50:14;;;;;;;;;;;;;;;11.48;100.00;98821.75;5062581;28;19988;-59
2023/04/01 08:52:48;;;;;;;;;;;;;;;11.35;100.00;98827.84;5075519;28;19956;-59
2023/04/01 08:55:19;;;;;;;;;;;;;;;11.40;100.00;98829.28;5077380;28;19970;-59
2023/04/01 08:57:51;;;;;;;;;;;;;;;11.49;100.00;98826.16;5062410;28;20381;-59
2023/04/01 09:00:19;;;;;;;;;;;;;;;11.46;100.00;98828.97;5075128;28;20466;-59
2023/04/01 09:03:02;;;;;;;;;;;;;;;11.41;100.00;98835.50;5059795;28;20046;-59
2023/04/01 09:05:42;;;;;;;;;;;;;;;11.42;100.00;98827.41;5073571;28;20005;-59
2023/04/01 09:08:17;;;;;;;;;;;;;;;11.51;100.00;98834.03;5078695;28;19927;-59
2023/04/01 09:11:01;;;;;;;;;;;;;;;11.50;100.00;98837.63;5075323;28;19937;-59
2023/04/01 09:13:26;;;;;;;;;;;;;;;11.60;100.00;98844.16;5077886;28;19954;-59
2023/04/01 09:16:10;;;;;;;;;;;;;;;11.58;100.00;98843.41;5072320;28;19944;-59
2023/04/01 09:18:57;;;;;;;;;;;;;;;11.60;100.00;98844.16;5076187;28;19937;-59
2023/04/01 09:21:28;;;;;;;;;;;;;;;11.62;100.00;98837.84;5056835;28;19949;-59
2023/04/01 09:24:12;;;;;;;;;;;;;;;11.63;100.00;98841.38;5077270;28;19934;-59
2023/04/01 09:26:57;;;;;;;;;;;;;;;11.72;100.00;98846.19;5074760;28;20000;-59
2023/04/01 09:29:29;;;;;;;;;;;;;;;11.71;100.00;98844.50;5057351;28;19947;-59
2023/04/01 09:32:14;;;;;;;;;;;;;;;11.78;100.00;98853.84;5072448;28;19932;-60
2023/04/01 09:34:42;;;;;;;;;;;;;;;11.76;100.00;98847.75;5045912;28;19993;-60
2023/04/01 09:37:14;;;;;;;;;;;;;;;11.70;100.00;98845.41;5080913;28;19927;-59
2023/04/01 09:40:02;;;;;;;;;;;;;;;11.68;100.00;98849.97;5085301;28;19940;-60
2023/04/01 09:42:34;;;;;;;;;;;;;;;11.79;100.00;98852.91;5067703;28;20010;-60
2023/04/01 09:45:01;;;;;;;;;;;;;;;11.79;100.00;98852.91;5062654;28;19948;-60
2023/04/01 09:47:45;;;;;;;;;;;;;;;11.83;100.00;98851.78;5063061;28;20330;-60
2023/04/01 09:50:21;;;;;;;;;;;;;;;11.86;100.00;98851.63;5061294;28;20023;-60
2023/04/01 09:52:47;;;;;;;;;;;;;;;11.78;100.00;98859.16;5077564;28;20004;-60
2023/04/01 09:55:30;;;;;;;;;;;;;;;11.80;100.00;98857.28;5081704;28;19933;-60
2023/04/01 09:58:11;;;;;;;;;;;;;;;11.88;100.00;98863.03;5072822;28;19933;-60
2023/04/01 10:00:45;;;;;;;;;;;;;;;11.89;100.00;98856.78;5080692;28;19999;-60
2023/04/01 10:03:10;;;;;;;;;;;;;;;11.73;100.00;98866.56;5084405;28;19935;-60
2023/04/01 10:05:51;;;;;;;;;;;;;;;11.77;100.00;98865.44;5085034;28;19950;-60
2023/04/01 10:08:39;;;;;;;;;;;;;;;11.81;100.00;98867.00;5066905;28;19982;-59
2023/04/01 10:11:05;;;;;;;;;;;;;;;11.76;100.00;98861.91;5064978;28;19980;-60
2023/04/01 10:13:39;;;;;;;;;;;;;;;11.82;100.00;98866.06;5064899;28;19929;-60
2023/04/01 10:16:07;;;;;;;;;;;;;;;11.77;100.00;98873.44;5070996;28;20046;-59
2023/04/01 10:18:33;;;;;;;;;;;;;;;11.87;100.00;98866.66;5084934;28;20034;-60
2023/04/01 10:21:08;;;;;;;;;;;;;;;11.83;100.00;98867.75;5080709;28;19961;-60
2023/04/01 10:23:46;;;;;;;;;;;;;;;11.83;100.00;98870.44;5082059;28;19932;-59
2023/04/01 10:26:29;;;;;;;;;;;;;;;11.85;100.00;98876.53;5080512;28;19961;-60
2023/04/01 10:29:10;;;;;;;;;;;;;;;11.78;100.00;98868.03;5080090;28;19928;-60
2023/04/01 10:31:59;;;;;;;;;;;;;;;11.86;100.00;98879.13;5068365;28;20454;-59
2023/04/01 10:34:43;;;;;;;;;;;;;;;11.86;100.00;98872.94;5065086;28;19936;-60
2023/04/01 10:37:15;;;;;;;;;;;;;;;12.03;100.00;98879.97;5067504;28;19940;-60
2023/04/01 10:39:43;;;;;;;;;;;;;;;11.91;100.00;98876.19;5081009;28;19934;-60
2023/04/01 10:42:47;;;;;;;;;;;;;;;12.01;100.00;98882.72;5078553;28;19931;-60
2023/04/01 10:45:15;;;;;;;;;;;;;;;12.08;100.00;98878.78;4978060;28;19979;-60
2023/04/01 10:48:05;;;;;;;;;;;;;;;12.16;100.00;98892.53;4977548;28;20373;-60
2023/04/01 10:50:45;;;;;;;;;;;;;;;12.14;100.00;98889.06;5035331;28;19930;-60
2023/04/01 10:53:16;;;;;;;;;;;;;;;12.16;100.00;98881.03;5069467;28;19970;-60
2023/04/01 10:55:45;;;;;;;;;;;;;;;12.30;100.00;98884.59;5060013;28;19990;-60
2023/04/01 10:58:13;;;;;;;;;;;;;;;12.37;100.00;98893.94;5060521;28;19933;-60
2023/04/01 11:00:38;;;;;;;;;;;;;;;12.39;100.00;98878.72;5060608;28;19955;-60
2023/04/01 11:03:06;;;;;;;;;;;;;;;12.44;100.00;98890.00;5063738;28;20011;-60
2023/04/01 11:05:50;;;;;;;;;;;;;;;12.39;100.00;98892.06;5071098;28;19983;-60
2023/04/01 11:08:35;;;;;;;;;;;;;;;12.28;100.00;98890.97;5063662;28;19939;-60
2023/04/01 11:11:17;;;;;;;;;;;;;;;12.15;100.00;98893.47;5059882;28;19927;-60
2023/04/01 11:13:55;;;;;;;;;;;;;;;12.06;100.00;98891.31;5065801;28;19921;-60
2023/04/01 11:16:26;;;;;;;;;;;;;;;12.17;100.00;98893.38;5080727;28;19933;-60
2023/04/01 11:19:10;;;;;;;;;;;;;;;12.14;100.00;98894.41;5068908;28;20312;-60
2023/04/01 11:21:59;;;;;;;;;;;;;;;12.05;100.00;98894.06;5071238;28;20415;-60
2023/04/01 11:24:56;;;;;;;;;;;;;;;12.16;100.00;98891.69;5084701;28;19930;-59
2023/04/01 11:27:24;;;;;;;;;;;;;;;12.20;100.00;98887.88;5017467;28;19976;-59
2023/04/01 11:29:56;;;;;;;;;;;;;;;12.27;100.00;98891.91;5071743;28;20010;-60
2023/04/01 11:32:39;;;;;;;;;;;;;;;12.30;100.00;98895.28;5078142;28;19965;-61
2023/04/01 11:35:17;;;;;;;;;;;;;;;12.35;100.00;98895.00;5082326;28;19939;-60
2023/04/01 11:37:51;;;;;;;;;;;;;;;12.21;100.00;98900.28;5072101;28;20041;-60
2023/04/01 11:40:24;;;;;;;;;;;;;;;12.28;100.00;98907.81;5082349;28;19936;-60
2023/04/01 11:42:55;;;;;;;;;;;;;;;12.25;100.00;98910.66;5079949;28;19936;-60
2023/04/01 11:45:22;;;;;;;;;;;;;;;12.27;100.00;98911.44;5083557;28;19931;-60
2023/04/01 11:47:50;;;;;;;;;;;;;;;12.37;100.00;98906.44;5082590;28;20030;-61
2023/04/01 11:50:21;;;;;;;;;;;;;;;12.44;100.00;98907.78;5068518;28;19957;-60
2023/04/01 11:53:05;;;;;;;;;;;;;;;12.47;100.00;98905.81;5079813;28;19957;-60
2023/04/01 11:55:49;;;;;;;;;;;;;;;12.56;100.00;98910.63;5072941;28;19935;-60
2023/04/01 11:58:29;;;;;;;;;;;;;;;12.46;99.92;98914.78;5071339;28;20007;-60
2023/04/01 12:01:10;;;;;;;;;;;;;;;12.57;99.93;98922.16;5078447;28;20026;-60
2023/04/01 12:03:54;;;;;;;;;;;;;;;12.61;99.58;98908.56;5079671;28;19934;-61
2023/04/01 12:06:37;;;;;;;;;;;;;;;12.67;99.22;98916.19;5075099;28;20303;-60
2023/04/01 12:09:02;;;;;;;;;;;;;;;12.67;98.98;98921.53;5078556;28;19984;-60
2023/04/01 12:11:47;;;;;;;;;;;;;;;12.62;97.35;98923.59;5066315;28;19933;-60
2023/04/01 12:14:26;;;;;;;;;;;;;;;12.63;96.95;98920.00;5077949;28;19956;-60
2023/04/01 12:16:58;;;;;;;;;;;;;;;12.59;96.41;98933.59;5074503;28;19949;-60
2023/04/01 12:19:33;;;;;;;;;;;;;;;12.54;95.88;98920.53;5067462;28;20018;-60
2023/04/01 12:22:07;;;;;;;;;;;;;;;12.52;95.59;98926.91;5074942;28;19958;-60
2023/04/01 12:24:42;;;;;;;;;;;;;;;12.53;95.45;98936.63;5065592;28;19934;-60
2023/04/01 12:27:14;;;;;;;;;;;;;;;12.41;95.26;98934.63;5079920;28;19957;-60
2023/04/01 12:29:58;;;;;;;;;;;;;;;12.37;95.60;98939.28;5075997;28;19981;-60
2023/04/01 12:32:31;;;;;;;;;;;;;;;12.39;96.06;98940.06;5067391;28;19939;-60
2023/04/01 12:35:13;;;;;;;;;;;;;;;12.31;96.06;98944.97;5080087;28;19949;-60
2023/04/01 12:37:57;;;;;;;;;;;;;;;12.30;97.18;98945.94;5076603;28;20372;-60
2023/04/01 12:40:41;;;;;;;;;;;;;;;12.27;97.88;98962.13;5079087;28;19932;-60
2023/04/01 12:43:20;;;;;;;;;;;;;;;12.13;97.70;98951.34;5076071;28;19942;-60
2023/04/01 12:45:55;;;;;;;;;;;;;;;12.21;98.99;98954.44;5084819;28;19944;-60
2023/04/01 12:48:20;;;;;;;;;;;;;;;12.27;99.33;98951.44;5082835;28;19962;-60
2023/04/01 12:51:04;;;;;;;;;;;;;;;12.26;100.00;98957.72;5079856;28;19928;-61
2023/04/01 12:53:45;;;;;;;;;;;;;;;12.27;100.00;98964.78;5062130;28;19913;-61
2023/04/01 12:56:49;;;;;;;;;;;;;;;12.27;100.00;98966.56;5078815;28;19936;-60
2023/04/01 12:59:32;;;;;;;;;;;;;;;12.28;100.00;98969.16;5007118;28;19940;-61
2023/04/01 13:02:24;;;;;;;;;;;;;;;12.30;100.00;98964.59;4998380;28;20020;-60
2023/04/01 13:04:52;;;;;;;;;;;;;;;12.18;100.00;98959.94;5061574;28;19970;-61
2023/04/01 13:07:24;;;;;;;;;;;;;;;12.15;100.00;98960.13;5075973;28;20416;-60